sensor_id;sensor_type;location;lat;lon;timestamp;P1;durP1;ratioP1;P2;durP2;ratioP2
13040;SDS011;6587;42.728;23.288;2023-02-28T00:00:53;28.10;;;15.60;;
13040;SDS011;6587;42.728;23.288;2023-02-28T00:03:20;31.87;;;16.73;;
13040;SDS011;6587;42.728;23.288;2023-02-28T00:05:47;32.73;;;16.47;;
13040;SDS011;6587;42.728;23.288;2023-02-28T00:08:13;28.43;;;15.83;;
13040;SDS011;6587;42.728;23.288;2023-02-28T00:10:41;31.87;;;16.77;;
13040;SDS011;6587;42.728;23.288;2023-02-28T00:13:08;30.63;;;16.97;;
13040;SDS011;6587;42.728;23.288;2023-02-28T00:15:36;30.47;;;16.23;;
13040;SDS011;6587;42.728;23.288;2023-02-28T00:18:02;32.10;;;17.87;;
13040;SDS011;6587;42.728;23.288;2023-02-28T00:20:29;29.10;;;15.00;;
13040;SDS011;6587;42.728;23.288;2023-02-28T00:22:56;27.93;;;14.67;;
13040;SDS011;6587;42.728;23.288;2023-02-28T00:25:23;27.77;;;14.40;;
13040;SDS011;6587;42.728;23.288;2023-02-28T00:27:51;26.57;;;13.67;;
13040;SDS011;6587;42.728;23.288;2023-02-28T00:30:19;25.13;;;14.00;;
13040;SDS011;6587;42.728;23.288;2023-02-28T00:32:46;29.67;;;14.40;;
13040;SDS011;6587;42.728;23.288;2023-02-28T00:35:13;29.83;;;14.27;;
13040;SDS011;6587;42.728;23.288;2023-02-28T00:37:40;29.57;;;15.17;;
13040;SDS011;6587;42.728;23.288;2023-02-28T00:40:08;26.97;;;14.30;;
13040;SDS011;6587;42.728;23.288;2023-02-28T00:42:36;27.07;;;13.80;;
13040;SDS011;6587;42.728;23.288;2023-02-28T00:45:05;28.67;;;13.90;;
13040;SDS011;6587;42.728;23.288;2023-02-28T00:47:32;31.23;;;15.07;;
13040;SDS011;6587;42.728;23.288;2023-02-28T00:49:59;29.93;;;14.57;;
13040;SDS011;6587;42.728;23.288;2023-02-28T00:52:27;28.40;;;14.53;;
13040;SDS011;6587;42.728;23.288;2023-02-28T00:54:54;28.03;;;15.67;;
13040;SDS011;6587;42.728;23.288;2023-02-28T00:57:21;30.97;;;15.17;;
13040;SDS011;6587;42.728;23.288;2023-02-28T00:59:48;32.63;;;15.30;;
13040;SDS011;6587;42.728;23.288;2023-02-28T01:02:16;29.40;;;14.67;;
13040;SDS011;6587;42.728;23.288;2023-02-28T01:04:45;32.07;;;15.03;;
13040;SDS011;6587;42.728;23.288;2023-02-28T01:07:12;29.27;;;15.37;;
13040;SDS011;6587;42.728;23.288;2023-02-28T01:09:39;29.67;;;14.67;;
13040;SDS011;6587;42.728;23.288;2023-02-28T01:12:07;30.27;;;15.27;;
13040;SDS011;6587;42.728;23.288;2023-02-28T01:14:34;29.00;;;15.23;;
13040;SDS011;6587;42.728;23.288;2023-02-28T01:17:01;27.60;;;14.83;;
13040;SDS011;6587;42.728;23.288;2023-02-28T01:19:29;27.07;;;14.53;;
13040;SDS011;6587;42.728;23.288;2023-02-28T01:21:55;27.87;;;14.37;;
13040;SDS011;6587;42.728;23.288;2023-02-28T01:24:22;30.97;;;15.13;;
13040;SDS011;6587;42.728;23.288;2023-02-28T01:26:49;30.17;;;15.67;;
13040;SDS011;6587;42.728;23.288;2023-02-28T01:29:16;30.17;;;15.10;;
13040;SDS011;6587;42.728;23.288;2023-02-28T01:31:42;34.67;;;17.37;;
13040;SDS011;6587;42.728;23.288;2023-02-28T01:34:10;33.50;;;17.20;;
13040;SDS011;6587;42.728;23.288;2023-02-28T01:36:39;29.70;;;15.23;;
13040;SDS011;6587;42.728;23.288;2023-02-28T01:39:05;32.93;;;16.07;;
13040;SDS011;6587;42.728;23.288;2023-02-28T01:41:33;28.33;;;14.00;;
13040;SDS011;6587;42.728;23.288;2023-02-28T01:44:02;31.43;;;15.10;;
13040;SDS011;6587;42.728;23.288;2023-02-28T01:46:29;32.30;;;14.57;;
13040;SDS011;6587;42.728;23.288;2023-02-28T01:48:58;28.17;;;14.97;;
13040;SDS011;6587;42.728;23.288;2023-02-28T01:51:26;26.20;;;14.83;;
13040;SDS011;6587;42.728;23.288;2023-02-28T01:53:56;30.30;;;15.03;;
13040;SDS011;6587;42.728;23.288;2023-02-28T01:56:25;27.00;;;14.53;;
13040;SDS011;6587;42.728;23.288;2023-02-28T01:58:54;30.73;;;15.60;;
13040;SDS011;6587;42.728;23.288;2023-02-28T02:01:22;27.47;;;14.57;;
13040;SDS011;6587;42.728;23.288;2023-02-28T02:03:49;26.57;;;14.40;;
13040;SDS011;6587;42.728;23.288;2023-02-28T02:06:20;26.47;;;14.03;;
13040;SDS011;6587;42.728;23.288;2023-02-28T02:08:47;30.93;;;14.60;;
13040;SDS011;6587;42.728;23.288;2023-02-28T02:11:16;27.37;;;14.43;;
13040;SDS011;6587;42.728;23.288;2023-02-28T02:13:48;27.87;;;14.97;;
13040;SDS011;6587;42.728;23.288;2023-02-28T02:16:27;28.17;;;14.43;;
13040;SDS011;6587;42.728;23.288;2023-02-28T02:18:57;29.60;;;14.53;;
13040;SDS011;6587;42.728;23.288;2023-02-28T02:21:37;30.90;;;14.30;;
13040;SDS011;6587;42.728;23.288;2023-02-28T02:35:39;28.10;;;14.63;;
13040;SDS011;6587;42.728;23.288;2023-02-28T02:38:08;29.83;;;14.87;;
13040;SDS011;6587;42.728;23.288;2023-02-28T02:40:36;27.27;;;13.97;;
13040;SDS011;6587;42.728;23.288;2023-02-28T02:43:04;31.17;;;15.63;;
13040;SDS011;6587;42.728;23.288;2023-02-28T02:45:33;28.83;;;13.97;;
13040;SDS011;6587;42.728;23.288;2023-02-28T02:48:01;27.37;;;13.10;;
13040;SDS011;6587;42.728;23.288;2023-02-28T02:50:29;24.97;;;13.13;;
13040;SDS011;6587;42.728;23.288;2023-02-28T02:52:59;25.13;;;12.50;;
13040;SDS011;6587;42.728;23.288;2023-02-28T02:55:28;28.90;;;14.07;;
13040;SDS011;6587;42.728;23.288;2023-02-28T02:57:58;24.07;;;12.80;;
13040;SDS011;6587;42.728;23.288;2023-02-28T03:00:26;23.20;;;12.33;;
13040;SDS011;6587;42.728;23.288;2023-02-28T03:02:55;25.97;;;12.63;;
13040;SDS011;6587;42.728;23.288;2023-02-28T03:05:23;29.17;;;13.87;;
13040;SDS011;6587;42.728;23.288;2023-02-28T03:07:51;25.90;;;13.60;;
13040;SDS011;6587;42.728;23.288;2023-02-28T03:10:33;27.93;;;12.37;;
13040;SDS011;6587;42.728;23.288;2023-02-28T03:13:03;22.83;;;12.70;;
13040;SDS011;6587;42.728;23.288;2023-02-28T03:15:36;23.90;;;12.77;;
13040;SDS011;6587;42.728;23.288;2023-02-28T03:18:08;21.97;;;12.83;;
13040;SDS011;6587;42.728;23.288;2023-02-28T03:20:38;21.73;;;12.10;;
13040;SDS011;6587;42.728;23.288;2023-02-28T03:23:12;24.13;;;13.27;;
13040;SDS011;6587;42.728;23.288;2023-02-28T03:25:45;22.63;;;12.20;;
13040;SDS011;6587;42.728;23.288;2023-02-28T03:28:14;24.40;;;12.70;;
13040;SDS011;6587;42.728;23.288;2023-02-28T03:30:44;23.03;;;12.17;;
13040;SDS011;6587;42.728;23.288;2023-02-28T03:33:16;27.47;;;13.10;;
13040;SDS011;6587;42.728;23.288;2023-02-28T03:35:45;23.43;;;12.70;;
13040;SDS011;6587;42.728;23.288;2023-02-28T03:38:15;25.57;;;13.00;;
13040;SDS011;6587;42.728;23.288;2023-02-28T03:40:46;28.53;;;14.33;;
13040;SDS011;6587;42.728;23.288;2023-02-28T03:43:16;25.00;;;15.53;;
13040;SDS011;6587;42.728;23.288;2023-02-28T03:45:44;24.27;;;14.10;;
13040;SDS011;6587;42.728;23.288;2023-02-28T03:48:13;23.10;;;14.30;;
13040;SDS011;6587;42.728;23.288;2023-02-28T03:50:41;26.97;;;12.87;;
13040;SDS011;6587;42.728;23.288;2023-02-28T03:53:08;24.03;;;12.63;;
13040;SDS011;6587;42.728;23.288;2023-02-28T03:55:39;24.70;;;12.37;;
13040;SDS011;6587;42.728;23.288;2023-02-28T03:58:11;24.27;;;12.30;;
13040;SDS011;6587;42.728;23.288;2023-02-28T04:00:40;24.80;;;12.67;;
13040;SDS011;6587;42.728;23.288;2023-02-28T04:03:09;22.13;;;13.00;;
13040;SDS011;6587;42.728;23.288;2023-02-28T04:05:43;24.43;;;12.87;;
13040;SDS011;6587;42.728;23.288;2023-02-28T04:08:12;22.43;;;12.10;;
13040;SDS011;6587;42.728;23.288;2023-02-28T04:10:39;22.37;;;12.27;;
13040;SDS011;6587;42.728;23.288;2023-02-28T04:13:06;25.07;;;13.43;;
13040;SDS011;6587;42.728;23.288;2023-02-28T04:15:34;22.33;;;12.77;;
13040;SDS011;6587;42.728;23.288;2023-02-28T04:18:02;25.53;;;13.17;;
13040;SDS011;6587;42.728;23.288;2023-02-28T04:20:28;28.97;;;13.50;;
13040;SDS011;6587;42.728;23.288;2023-02-28T04:22:55;30.60;;;13.77;;
13040;SDS011;6587;42.728;23.288;2023-02-28T04:25:22;24.07;;;13.53;;
13040;SDS011;6587;42.728;23.288;2023-02-28T04:27:48;28.77;;;14.03;;
13040;SDS011;6587;42.728;23.288;2023-02-28T04:30:15;27.93;;;14.90;;
13040;SDS011;6587;42.728;23.288;2023-02-28T04:32:44;27.13;;;13.80;;
13040;SDS011;6587;42.728;23.288;2023-02-28T04:35:10;27.97;;;15.30;;
13040;SDS011;6587;42.728;23.288;2023-02-28T04:37:37;27.77;;;14.30;;
13040;SDS011;6587;42.728;23.288;2023-02-28T04:40:04;28.60;;;14.80;;
13040;SDS011;6587;42.728;23.288;2023-02-28T04:42:31;25.03;;;14.03;;
13040;SDS011;6587;42.728;23.288;2023-02-28T04:45:01;25.03;;;13.93;;
13040;SDS011;6587;42.728;23.288;2023-02-28T04:47:27;25.43;;;14.40;;
13040;SDS011;6587;42.728;23.288;2023-02-28T04:49:56;24.13;;;13.20;;
13040;SDS011;6587;42.728;23.288;2023-02-28T04:52:22;28.53;;;13.67;;
13040;SDS011;6587;42.728;23.288;2023-02-28T04:54:51;27.10;;;14.33;;
13040;SDS011;6587;42.728;23.288;2023-02-28T04:57:17;28.33;;;14.50;;
13040;SDS011;6587;42.728;23.288;2023-02-28T04:59:44;28.30;;;15.17;;
13040;SDS011;6587;42.728;23.288;2023-02-28T05:02:11;32.27;;;15.07;;
13040;SDS011;6587;42.728;23.288;2023-02-28T05:04:38;29.93;;;15.77;;
13040;SDS011;6587;42.728;23.288;2023-02-28T05:07:06;30.73;;;15.60;;
13040;SDS011;6587;42.728;23.288;2023-02-28T05:09:32;31.13;;;14.97;;
13040;SDS011;6587;42.728;23.288;2023-02-28T05:11:59;31.63;;;15.73;;
13040;SDS011;6587;42.728;23.288;2023-02-28T05:14:26;34.60;;;16.70;;
13040;SDS011;6587;42.728;23.288;2023-02-28T05:16:53;37.77;;;20.20;;
13040;SDS011;6587;42.728;23.288;2023-02-28T05:19:20;34.70;;;20.33;;
13040;SDS011;6587;42.728;23.288;2023-02-28T05:21:49;28.50;;;16.10;;
13040;SDS011;6587;42.728;23.288;2023-02-28T05:24:18;27.30;;;15.87;;
13040;SDS011;6587;42.728;23.288;2023-02-28T05:26:48;29.03;;;15.27;;
13040;SDS011;6587;42.728;23.288;2023-02-28T05:29:15;28.90;;;15.87;;
13040;SDS011;6587;42.728;23.288;2023-02-28T05:31:41;32.00;;;15.97;;
13040;SDS011;6587;42.728;23.288;2023-02-28T05:34:08;30.00;;;16.73;;
13040;SDS011;6587;42.728;23.288;2023-02-28T05:36:36;33.20;;;17.13;;
13040;SDS011;6587;42.728;23.288;2023-02-28T05:39:04;27.60;;;16.30;;
13040;SDS011;6587;42.728;23.288;2023-02-28T05:41:32;32.63;;;17.57;;
13040;SDS011;6587;42.728;23.288;2023-02-28T05:43:59;39.63;;;18.83;;
13040;SDS011;6587;42.728;23.288;2023-02-28T05:46:26;32.33;;;18.27;;
13040;SDS011;6587;42.728;23.288;2023-02-28T05:48:53;33.63;;;17.37;;
13040;SDS011;6587;42.728;23.288;2023-02-28T05:51:20;33.30;;;19.33;;
13040;SDS011;6587;42.728;23.288;2023-02-28T05:53:47;38.27;;;19.77;;
13040;SDS011;6587;42.728;23.288;2023-02-28T05:56:14;47.10;;;19.87;;
13040;SDS011;6587;42.728;23.288;2023-02-28T05:58:42;46.43;;;20.67;;
13040;SDS011;6587;42.728;23.288;2023-02-28T06:01:19;47.27;;;22.33;;
13040;SDS011;6587;42.728;23.288;2023-02-28T06:03:46;40.80;;;21.00;;
13040;SDS011;6587;42.728;23.288;2023-02-28T06:06:13;38.90;;;19.57;;
13040;SDS011;6587;42.728;23.288;2023-02-28T06:08:39;48.73;;;21.13;;
13040;SDS011;6587;42.728;23.288;2023-02-28T06:11:08;44.23;;;21.00;;
13040;SDS011;6587;42.728;23.288;2023-02-28T06:13:35;42.00;;;20.50;;
13040;SDS011;6587;42.728;23.288;2023-02-28T06:16:03;43.07;;;20.30;;
13040;SDS011;6587;42.728;23.288;2023-02-28T06:18:30;48.50;;;22.50;;
13040;SDS011;6587;42.728;23.288;2023-02-28T06:20:56;46.17;;;22.13;;
13040;SDS011;6587;42.728;23.288;2023-02-28T06:23:23;55.53;;;25.40;;
13040;SDS011;6587;42.728;23.288;2023-02-28T06:25:50;57.03;;;26.30;;
13040;SDS011;6587;42.728;23.288;2023-02-28T06:28:18;67.30;;;28.13;;
13040;SDS011;6587;42.728;23.288;2023-02-28T06:30:44;73.33;;;28.90;;
13040;SDS011;6587;42.728;23.288;2023-02-28T06:33:12;73.33;;;29.27;;
13040;SDS011;6587;42.728;23.288;2023-02-28T06:35:39;63.57;;;27.27;;
13040;SDS011;6587;42.728;23.288;2023-02-28T06:38:06;60.87;;;27.33;;
13040;SDS011;6587;42.728;23.288;2023-02-28T06:40:32;68.07;;;27.07;;
13040;SDS011;6587;42.728;23.288;2023-02-28T06:43:00;73.63;;;27.90;;
13040;SDS011;6587;42.728;23.288;2023-02-28T06:45:27;68.17;;;26.83;;
13040;SDS011;6587;42.728;23.288;2023-02-28T06:47:54;70.83;;;28.00;;
13040;SDS011;6587;42.728;23.288;2023-02-28T06:50:22;72.00;;;28.30;;
13040;SDS011;6587;42.728;23.288;2023-02-28T06:52:48;70.27;;;28.67;;
13040;SDS011;6587;42.728;23.288;2023-02-28T06:55:19;75.90;;;29.27;;
13040;SDS011;6587;42.728;23.288;2023-02-28T06:57:45;60.07;;;27.50;;
13040;SDS011;6587;42.728;23.288;2023-02-28T07:00:12;74.37;;;29.80;;
13040;SDS011;6587;42.728;23.288;2023-02-28T07:02:39;64.63;;;28.03;;
13040;SDS011;6587;42.728;23.288;2023-02-28T07:05:06;62.87;;;27.10;;
13040;SDS011;6587;42.728;23.288;2023-02-28T07:07:34;59.63;;;27.53;;
13040;SDS011;6587;42.728;23.288;2023-02-28T07:10:03;60.90;;;26.67;;
13040;SDS011;6587;42.728;23.288;2023-02-28T07:12:30;65.53;;;27.87;;
13040;SDS011;6587;42.728;23.288;2023-02-28T07:14:57;70.73;;;29.50;;
13040;SDS011;6587;42.728;23.288;2023-02-28T07:17:23;78.87;;;32.00;;
13040;SDS011;6587;42.728;23.288;2023-02-28T07:19:50;77.00;;;32.57;;
13040;SDS011;6587;42.728;23.288;2023-02-28T07:22:17;76.37;;;31.57;;
13040;SDS011;6587;42.728;23.288;2023-02-28T07:24:45;75.63;;;32.63;;
13040;SDS011;6587;42.728;23.288;2023-02-28T07:27:11;70.57;;;28.97;;
13040;SDS011;6587;42.728;23.288;2023-02-28T07:29:48;72.37;;;31.77;;
13040;SDS011;6587;42.728;23.288;2023-02-28T07:32:15;69.77;;;31.83;;
13040;SDS011;6587;42.728;23.288;2023-02-28T07:34:41;83.17;;;30.10;;
13040;SDS011;6587;42.728;23.288;2023-02-28T07:37:08;68.57;;;30.53;;
13040;SDS011;6587;42.728;23.288;2023-02-28T07:39:35;76.30;;;32.37;;
13040;SDS011;6587;42.728;23.288;2023-02-28T07:42:05;87.33;;;33.93;;
13040;SDS011;6587;42.728;23.288;2023-02-28T07:44:34;72.47;;;30.97;;
13040;SDS011;6587;42.728;23.288;2023-02-28T07:47:05;68.60;;;29.43;;
13040;SDS011;6587;42.728;23.288;2023-02-28T07:49:32;68.23;;;30.17;;
13040;SDS011;6587;42.728;23.288;2023-02-28T07:51:58;68.10;;;30.23;;
13040;SDS011;6587;42.728;23.288;2023-02-28T07:54:25;66.40;;;28.93;;
13040;SDS011;6587;42.728;23.288;2023-02-28T07:56:51;58.80;;;28.47;;
13040;SDS011;6587;42.728;23.288;2023-02-28T07:59:19;66.40;;;30.63;;
13040;SDS011;6587;42.728;23.288;2023-02-28T08:01:46;71.27;;;33.63;;
13040;SDS011;6587;42.728;23.288;2023-02-28T08:04:15;72.20;;;31.70;;
13040;SDS011;6587;42.728;23.288;2023-02-28T08:06:42;59.07;;;28.13;;
13040;SDS011;6587;42.728;23.288;2023-02-28T08:09:08;65.13;;;28.57;;
13040;SDS011;6587;42.728;23.288;2023-02-28T08:11:35;74.80;;;30.23;;
13040;SDS011;6587;42.728;23.288;2023-02-28T08:14:02;68.30;;;31.33;;
13040;SDS011;6587;42.728;23.288;2023-02-28T08:16:30;66.67;;;31.67;;
13040;SDS011;6587;42.728;23.288;2023-02-28T08:18:57;69.27;;;31.80;;
13040;SDS011;6587;42.728;23.288;2023-02-28T08:21:23;66.43;;;31.90;;
13040;SDS011;6587;42.728;23.288;2023-02-28T08:23:50;69.80;;;32.07;;
13040;SDS011;6587;42.728;23.288;2023-02-28T08:26:17;69.60;;;29.47;;
13040;SDS011;6587;42.728;23.288;2023-02-28T08:28:43;62.57;;;29.63;;
13040;SDS011;6587;42.728;23.288;2023-02-28T08:31:11;62.83;;;31.37;;
13040;SDS011;6587;42.728;23.288;2023-02-28T08:33:40;63.73;;;31.93;;
13040;SDS011;6587;42.728;23.288;2023-02-28T08:36:07;68.50;;;30.83;;
13040;SDS011;6587;42.728;23.288;2023-02-28T08:38:34;75.13;;;32.90;;
13040;SDS011;6587;42.728;23.288;2023-02-28T08:41:02;61.40;;;29.70;;
13040;SDS011;6587;42.728;23.288;2023-02-28T08:43:31;61.00;;;28.40;;
13040;SDS011;6587;42.728;23.288;2023-02-28T08:45:57;64.37;;;28.10;;
13040;SDS011;6587;42.728;23.288;2023-02-28T08:48:24;60.27;;;26.70;;
13040;SDS011;6587;42.728;23.288;2023-02-28T08:50:58;48.27;;;24.67;;
13040;SDS011;6587;42.728;23.288;2023-02-28T08:53:25;47.40;;;24.10;;
13040;SDS011;6587;42.728;23.288;2023-02-28T08:55:55;54.97;;;24.67;;
13040;SDS011;6587;42.728;23.288;2023-02-28T08:58:22;56.47;;;26.03;;
13040;SDS011;6587;42.728;23.288;2023-02-28T09:00:49;48.33;;;23.97;;
13040;SDS011;6587;42.728;23.288;2023-02-28T09:03:16;51.93;;;25.67;;
13040;SDS011;6587;42.728;23.288;2023-02-28T09:05:51;52.40;;;25.80;;
13040;SDS011;6587;42.728;23.288;2023-02-28T09:08:19;52.17;;;25.70;;
13040;SDS011;6587;42.728;23.288;2023-02-28T09:10:45;59.63;;;26.97;;
13040;SDS011;6587;42.728;23.288;2023-02-28T09:13:12;53.30;;;26.17;;
13040;SDS011;6587;42.728;23.288;2023-02-28T09:15:38;55.80;;;27.57;;
13040;SDS011;6587;42.728;23.288;2023-02-28T09:18:05;57.30;;;26.53;;
13040;SDS011;6587;42.728;23.288;2023-02-28T09:20:32;55.30;;;27.13;;
13040;SDS011;6587;42.728;23.288;2023-02-28T09:22:58;53.43;;;26.40;;
13040;SDS011;6587;42.728;23.288;2023-02-28T09:25:26;56.07;;;27.27;;
13040;SDS011;6587;42.728;23.288;2023-02-28T09:27:53;51.47;;;26.97;;
13040;SDS011;6587;42.728;23.288;2023-02-28T09:30:19;57.10;;;27.73;;
13040;SDS011;6587;42.728;23.288;2023-02-28T09:32:46;53.13;;;26.27;;
13040;SDS011;6587;42.728;23.288;2023-02-28T09:35:17;51.93;;;27.83;;
13040;SDS011;6587;42.728;23.288;2023-02-28T09:37:44;52.17;;;25.87;;
13040;SDS011;6587;42.728;23.288;2023-02-28T09:40:11;52.57;;;24.63;;
13040;SDS011;6587;42.728;23.288;2023-02-28T09:42:39;49.73;;;24.93;;
13040;SDS011;6587;42.728;23.288;2023-02-28T09:45:08;54.33;;;24.53;;
13040;SDS011;6587;42.728;23.288;2023-02-28T09:47:38;53.63;;;26.00;;
13040;SDS011;6587;42.728;23.288;2023-02-28T09:50:06;56.17;;;26.10;;
13040;SDS011;6587;42.728;23.288;2023-02-28T09:52:35;47.70;;;23.77;;
13040;SDS011;6587;42.728;23.288;2023-02-28T09:55:08;47.77;;;24.73;;
13040;SDS011;6587;42.728;23.288;2023-02-28T09:57:43;52.20;;;26.67;;
13040;SDS011;6587;42.728;23.288;2023-02-28T10:00:12;69.87;;;33.93;;
13040;SDS011;6587;42.728;23.288;2023-02-28T10:02:48;55.83;;;26.53;;
13040;SDS011;6587;42.728;23.288;2023-02-28T10:05:19;56.07;;;28.47;;
13040;SDS011;6587;42.728;23.288;2023-02-28T10:07:50;49.83;;;25.83;;
13040;SDS011;6587;42.728;23.288;2023-02-28T10:10:21;50.17;;;25.13;;
13040;SDS011;6587;42.728;23.288;2023-02-28T10:12:51;39.50;;;21.37;;
13040;SDS011;6587;42.728;23.288;2023-02-28T10:15:18;33.93;;;17.43;;
13040;SDS011;6587;42.728;23.288;2023-02-28T10:17:47;28.47;;;15.43;;
13040;SDS011;6587;42.728;23.288;2023-02-28T10:20:17;32.80;;;15.77;;
13040;SDS011;6587;42.728;23.288;2023-02-28T10:22:49;37.17;;;15.33;;
13040;SDS011;6587;42.728;23.288;2023-02-28T10:25:18;29.83;;;14.77;;
13040;SDS011;6587;42.728;23.288;2023-02-28T10:27:45;32.63;;;14.50;;
13040;SDS011;6587;42.728;23.288;2023-02-28T10:30:13;25.47;;;13.87;;
13040;SDS011;6587;42.728;23.288;2023-02-28T10:32:41;24.67;;;13.07;;
13040;SDS011;6587;42.728;23.288;2023-02-28T10:35:14;27.43;;;13.50;;
13040;SDS011;6587;42.728;23.288;2023-02-28T10:37:43;23.93;;;11.67;;
13040;SDS011;6587;42.728;23.288;2023-02-28T10:40:25;24.40;;;12.60;;
13040;SDS011;6587;42.728;23.288;2023-02-28T10:42:54;23.40;;;12.50;;
13040;SDS011;6587;42.728;23.288;2023-02-28T10:45:23;22.63;;;12.60;;
13040;SDS011;6587;42.728;23.288;2023-02-28T10:47:51;27.17;;;12.80;;
13040;SDS011;6587;42.728;23.288;2023-02-28T10:53:10;30.33;;;12.27;;
13040;SDS011;6587;42.728;23.288;2023-02-28T10:55:41;29.20;;;12.20;;
13040;SDS011;6587;42.728;23.288;2023-02-28T10:58:18;23.87;;;11.60;;
13040;SDS011;6587;42.728;23.288;2023-02-28T11:00:48;20.50;;;11.30;;
13040;SDS011;6587;42.728;23.288;2023-02-28T11:03:22;20.03;;;11.73;;
13040;SDS011;6587;42.728;23.288;2023-02-28T11:05:50;26.10;;;11.80;;
13040;SDS011;6587;42.728;23.288;2023-02-28T11:08:17;29.23;;;13.67;;
13040;SDS011;6587;42.728;23.288;2023-02-28T11:10:44;28.93;;;13.27;;
13040;SDS011;6587;42.728;23.288;2023-02-28T11:13:15;31.30;;;12.07;;
13040;SDS011;6587;42.728;23.288;2023-02-28T11:15:43;28.57;;;11.57;;
13040;SDS011;6587;42.728;23.288;2023-02-28T11:18:21;27.30;;;12.13;;
13040;SDS011;6587;42.728;23.288;2023-02-28T11:20:49;23.33;;;13.37;;
13040;SDS011;6587;42.728;23.288;2023-02-28T11:23:17;25.67;;;11.97;;
13040;SDS011;6587;42.728;23.288;2023-02-28T11:25:46;25.77;;;13.40;;
13040;SDS011;6587;42.728;23.288;2023-02-28T11:28:23;29.23;;;13.53;;
13040;SDS011;6587;42.728;23.288;2023-02-28T11:30:59;25.67;;;13.63;;
13040;SDS011;6587;42.728;23.288;2023-02-28T11:33:28;25.23;;;12.87;;
13040;SDS011;6587;42.728;23.288;2023-02-28T11:35:56;28.87;;;12.80;;
13040;SDS011;6587;42.728;23.288;2023-02-28T11:38:25;21.70;;;11.80;;
13040;SDS011;6587;42.728;23.288;2023-02-28T11:40:56;27.47;;;11.90;;
13040;SDS011;6587;42.728;23.288;2023-02-28T11:43:28;28.43;;;11.50;;
13040;SDS011;6587;42.728;23.288;2023-02-28T11:46:08;24.03;;;11.43;;
13040;SDS011;6587;42.728;23.288;2023-02-28T11:48:41;25.27;;;12.50;;
13040;SDS011;6587;42.728;23.288;2023-02-28T11:51:14;26.53;;;11.33;;
13040;SDS011;6587;42.728;23.288;2023-02-28T11:56:26;31.70;;;12.47;;
13040;SDS011;6587;42.728;23.288;2023-02-28T11:59:01;29.80;;;12.93;;
13040;SDS011;6587;42.728;23.288;2023-02-28T12:01:38;26.27;;;12.30;;
13040;SDS011;6587;42.728;23.288;2023-02-28T12:04:14;27.77;;;12.50;;
13040;SDS011;6587;42.728;23.288;2023-02-28T12:06:45;24.43;;;12.13;;
13040;SDS011;6587;42.728;23.288;2023-02-28T12:12:02;22.80;;;12.50;;
13040;SDS011;6587;42.728;23.288;2023-02-28T12:14:50;26.13;;;13.17;;
13040;SDS011;6587;42.728;23.288;2023-02-28T12:17:26;32.37;;;13.70;;
13040;SDS011;6587;42.728;23.288;2023-02-28T12:19:59;23.43;;;10.57;;
13040;SDS011;6587;42.728;23.288;2023-02-28T12:22:28;24.37;;;11.20;;
13040;SDS011;6587;42.728;23.288;2023-02-28T12:27:44;21.80;;;11.07;;
13040;SDS011;6587;42.728;23.288;2023-02-28T12:30:13;19.53;;;10.43;;
13040;SDS011;6587;42.728;23.288;2023-02-28T12:32:44;23.57;;;10.60;;
13040;SDS011;6587;42.728;23.288;2023-02-28T12:35:13;21.37;;;10.67;;
13040;SDS011;6587;42.728;23.288;2023-02-28T12:37:41;23.03;;;10.60;;
13040;SDS011;6587;42.728;23.288;2023-02-28T12:40:11;24.67;;;10.57;;
13040;SDS011;6587;42.728;23.288;2023-02-28T12:42:39;22.33;;;11.20;;
13040;SDS011;6587;42.728;23.288;2023-02-28T12:45:08;19.77;;;9.20;;
13040;SDS011;6587;42.728;23.288;2023-02-28T12:47:37;26.00;;;10.30;;
13040;SDS011;6587;42.728;23.288;2023-02-28T12:50:07;29.93;;;10.80;;
13040;SDS011;6587;42.728;23.288;2023-02-28T12:52:39;23.77;;;10.30;;
13040;SDS011;6587;42.728;23.288;2023-02-28T12:55:08;25.90;;;11.30;;
13040;SDS011;6587;42.728;23.288;2023-02-28T12:57:39;19.57;;;10.73;;
13040;SDS011;6587;42.728;23.288;2023-02-28T13:00:10;25.43;;;11.33;;
13040;SDS011;6587;42.728;23.288;2023-02-28T13:02:43;19.80;;;10.50;;
13040;SDS011;6587;42.728;23.288;2023-02-28T13:05:22;21.17;;;9.67;;
13040;SDS011;6587;42.728;23.288;2023-02-28T13:10:40;18.13;;;10.30;;
13040;SDS011;6587;42.728;23.288;2023-02-28T13:13:11;27.30;;;11.07;;
13040;SDS011;6587;42.728;23.288;2023-02-28T13:15:39;23.37;;;11.53;;
13040;SDS011;6587;42.728;23.288;2023-02-28T13:18:22;31.07;;;11.60;;
13040;SDS011;6587;42.728;23.288;2023-02-28T13:20:53;25.23;;;10.60;;
13040;SDS011;6587;42.728;23.288;2023-02-28T13:23:37;22.87;;;11.00;;
13040;SDS011;6587;42.728;23.288;2023-02-28T13:26:05;22.17;;;10.30;;
13040;SDS011;6587;42.728;23.288;2023-02-28T13:31:23;22.83;;;10.97;;
13040;SDS011;6587;42.728;23.288;2023-02-28T13:36:31;28.27;;;11.67;;
13040;SDS011;6587;42.728;23.288;2023-02-28T13:38:58;23.23;;;10.57;;
13040;SDS011;6587;42.728;23.288;2023-02-28T13:41:47;24.80;;;10.17;;
13040;SDS011;6587;42.728;23.288;2023-02-28T13:44:15;24.27;;;10.50;;
13040;SDS011;6587;42.728;23.288;2023-02-28T13:49:27;24.17;;;10.50;;
13040;SDS011;6587;42.728;23.288;2023-02-28T13:51:55;20.33;;;9.73;;
13040;SDS011;6587;42.728;23.288;2023-02-28T13:54:32;20.13;;;10.43;;
13040;SDS011;6587;42.728;23.288;2023-02-28T13:57:10;23.47;;;10.17;;
13040;SDS011;6587;42.728;23.288;2023-02-28T13:59:42;24.53;;;10.00;;
13040;SDS011;6587;42.728;23.288;2023-02-28T14:02:20;22.80;;;11.10;;
13040;SDS011;6587;42.728;23.288;2023-02-28T14:04:59;26.53;;;10.73;;
13040;SDS011;6587;42.728;23.288;2023-02-28T14:07:27;22.63;;;10.30;;
13040;SDS011;6587;42.728;23.288;2023-02-28T14:09:56;22.07;;;9.60;;
13040;SDS011;6587;42.728;23.288;2023-02-28T14:17:51;19.00;;;10.17;;
13040;SDS011;6587;42.728;23.288;2023-02-28T14:20:18;22.83;;;10.00;;
13040;SDS011;6587;42.728;23.288;2023-02-28T14:22:50;20.03;;;10.20;;
13040;SDS011;6587;42.728;23.288;2023-02-28T14:25:22;17.80;;;9.90;;
13040;SDS011;6587;42.728;23.288;2023-02-28T14:27:50;21.30;;;9.87;;
13040;SDS011;6587;42.728;23.288;2023-02-28T14:30:33;21.63;;;10.70;;
13040;SDS011;6587;42.728;23.288;2023-02-28T14:33:08;18.87;;;9.67;;
13040;SDS011;6587;42.728;23.288;2023-02-28T14:35:45;22.97;;;9.97;;
13040;SDS011;6587;42.728;23.288;2023-02-28T14:38:14;19.90;;;11.07;;
13040;SDS011;6587;42.728;23.288;2023-02-28T14:40:43;24.20;;;10.93;;
13040;SDS011;6587;42.728;23.288;2023-02-28T14:43:18;20.87;;;10.77;;
13040;SDS011;6587;42.728;23.288;2023-02-28T14:45:48;23.70;;;11.10;;
13040;SDS011;6587;42.728;23.288;2023-02-28T14:48:17;22.27;;;10.80;;
13040;SDS011;6587;42.728;23.288;2023-02-28T14:50:48;22.93;;;10.70;;
13040;SDS011;6587;42.728;23.288;2023-02-28T14:53:15;18.97;;;10.33;;
13040;SDS011;6587;42.728;23.288;2023-02-28T14:55:44;25.57;;;11.63;;
13040;SDS011;6587;42.728;23.288;2023-02-28T14:58:20;23.07;;;11.80;;
13040;SDS011;6587;42.728;23.288;2023-02-28T15:00:48;27.40;;;12.17;;
13040;SDS011;6587;42.728;23.288;2023-02-28T15:03:18;25.57;;;11.60;;
13040;SDS011;6587;42.728;23.288;2023-02-28T15:05:51;27.07;;;11.40;;
13040;SDS011;6587;42.728;23.288;2023-02-28T15:08:18;24.00;;;11.87;;
13040;SDS011;6587;42.728;23.288;2023-02-28T15:10:45;29.27;;;12.43;;